createdAt,value
2023-10-16T00:05:06.758Z,128.3
2023-10-16T00:10:42.414Z,122.0
2023-10-16T00:16:14.207Z,133.9
2023-10-16T00:21:46.024Z,129.2
2023-10-16T00:27:17.606Z,124.9
2023-10-16T00:32:49.465Z,120.9
2023-10-16T00:38:21.070Z,143.9
2023-10-16T00:43:52.785Z,150.1
2023-10-16T00:49:24.497Z,142.6
2023-10-16T00:54:56.291Z,152.7
2023-10-16T01:00:28.113Z,126.1
2023-10-16T01:05:59.794Z,141.3
2023-10-16T01:11:37.854Z,154.9
2023-10-16T01:17:09.574Z,138.4
2023-10-16T01:22:41.311Z,138.2
2023-10-16T01:28:13.053Z,117.7
2023-10-16T01:33:44.936Z,125.0
2023-10-16T01:39:16.672Z,125.6
2023-10-16T01:44:48.498Z,91.3
2023-10-16T01:50:20.105Z,101.9
2023-10-16T01:55:51.823Z,69.9
2023-10-16T02:01:23.586Z,64.5
2023-10-16T02:06:55.350Z,34.8
2023-10-16T02:12:33.461Z,45.8
2023-10-16T02:18:05.037Z,36.7
2023-10-16T02:23:36.716Z,53.1
2023-10-16T02:29:08.531Z,44.8
2023-10-16T02:34:40.124Z,21.2
2023-10-16T02:40:12.117Z,19.5
2023-10-16T02:45:43.648Z,12.5
2023-10-16T02:51:15.449Z,7.4
2023-10-16T02:56:47.042Z,999.9
2023-10-16T03:02:19.480Z,14.6
2023-10-16T03:07:50.565Z,4.2
2023-10-16T03:13:26.591Z,999.9
2023-10-16T03:18:58.455Z,999.9
2023-10-16T03:24:30.058Z,999.9
2023-10-16T03:30:01.821Z,999.9
2023-10-16T03:35:33.509Z,999.9
2023-10-16T03:41:05.516Z,999.9
2023-10-16T03:46:37.303Z,999.9
2023-10-16T03:52:08.705Z,999.9
2023-10-16T03:57:40.401Z,999.9
2023-10-16T04:03:12.216Z,999.9
2023-10-16T04:08:43.895Z,999.9
2023-10-16T04:14:20.092Z,999.9
2023-10-16T04:19:51.617Z,999.9
2023-10-16T04:25:23.534Z,999.9
2023-10-16T04:30:55.265Z,999.9
2023-10-16T04:36:27.004Z,999.9
2023-10-16T04:41:58.728Z,999.9
2023-10-16T04:47:30.224Z,999.9
2023-10-16T04:53:01.984Z,999.9
2023-10-16T04:58:33.732Z,999.9
2023-10-16T05:04:05.470Z,999.9
2023-10-16T05:09:37.381Z,999.9
2023-10-16T05:15:15.386Z,999.9
2023-10-16T05:20:46.923Z,999.9
2023-10-16T05:26:18.837Z,999.9
2023-10-16T05:31:50.359Z,999.9
2023-10-16T05:37:22.430Z,999.9
2023-10-16T05:42:53.898Z,999.9
2023-10-16T05:48:25.590Z,999.9
2023-10-16T05:53:57.262Z,999.9
2023-10-16T05:59:29.242Z,999.9
2023-10-16T06:05:01.033Z,999.9
2023-10-16T06:10:32.449Z,999.9
2023-10-16T06:16:08.615Z,999.9
2023-10-16T06:21:40.284Z,999.9
2023-10-16T06:27:12.203Z,999.9
2023-10-16T06:32:43.787Z,999.9
2023-10-16T06:38:15.629Z,999.9
2023-10-16T06:43:47.195Z,999.9
2023-10-16T06:49:19.068Z,999.9
2023-10-16T06:54:50.928Z,3.8
2023-10-16T07:00:22.463Z,999.9
2023-10-16T07:05:54.048Z,70.5
2023-10-16T07:11:25.772Z,98.4
2023-10-16T07:17:02.439Z,135.3
2023-10-16T07:22:33.583Z,131.4
2023-10-16T07:28:05.581Z,141.9
2023-10-16T07:33:40.306Z,159.3
2023-10-16T07:39:08.948Z,159.2
2023-10-16T07:44:40.661Z,160.7
2023-10-16T07:50:12.359Z,170.7
2023-10-16T07:55:43.896Z,77.0
2023-10-16T08:01:15.655Z,123.0
2023-10-16T08:06:47.617Z,144.4
2023-10-16T08:12:19.069Z,35.1
2023-10-16T08:17:55.240Z,103.7
2023-10-16T08:23:26.923Z,35.2
2023-10-16T08:28:58.810Z,54.9
2023-10-16T08:34:30.321Z,24.5
2023-10-16T08:40:02.123Z,13.5
2023-10-16T08:45:33.895Z,17.3
2023-10-16T08:51:05.937Z,15.0
2023-10-16T08:56:37.220Z,11.5
2023-10-16T09:02:08.972Z,14.0
2023-10-16T09:07:40.616Z,9.3
2023-10-16T09:13:12.794Z,11.1
2023-10-16T09:18:50.511Z,6.6
2023-10-16T09:24:22.365Z,11.6
2023-10-16T09:29:54.090Z,16.8
2023-10-16T09:35:25.881Z,66.1
2023-10-16T09:40:57.396Z,146.2
2023-10-16T09:46:29.335Z,155.6
2023-10-16T09:57:32.707Z,114.7
2023-10-16T10:03:04.503Z,135.7
2023-10-16T10:08:36.195Z,96.3
2023-10-16T10:14:07.683Z,183.0
2023-10-16T10:19:43.949Z,236.6
2023-10-16T10:25:20.124Z,121.4
2023-10-16T10:30:47.442Z,117.3
2023-10-16T10:36:18.976Z,193.0
2023-10-16T10:41:50.666Z,152.5
2023-10-16T10:47:22.617Z,177.8
2023-10-16T10:52:54.254Z,208.7
2023-10-16T10:58:26.014Z,147.5
2023-10-16T11:03:57.900Z,152.1
2023-10-16T11:09:29.289Z,109.7
2023-10-16T11:15:01.011Z,129.2
2023-10-16T11:20:37.296Z,180.6
2023-10-16T11:26:08.852Z,201.7
2023-10-16T11:31:40.609Z,185.1
2023-10-16T11:37:12.462Z,136.6
2023-10-16T11:42:44.241Z,219.4
2023-10-16T11:48:15.878Z,210.6
2023-10-16T11:53:47.557Z,228.8
2023-10-16T11:59:19.215Z,174.1
2023-10-16T12:04:51.104Z,148.1
2023-10-16T12:10:22.638Z,137.3
2023-10-16T12:15:54.384Z,133.7
2023-10-16T12:21:32.566Z,167.4
2023-10-16T12:27:04.636Z,134.5
2023-10-16T12:32:35.852Z,150.9
2023-10-16T12:38:07.760Z,118.7
2023-10-16T12:43:39.461Z,159.9
2023-10-16T12:49:11.070Z,176.0
2023-10-16T12:54:42.726Z,999.9
2023-10-16T13:00:14.445Z,135.4
2023-10-16T13:05:46.186Z,180.8
2023-10-16T13:11:18.187Z,173.6
2023-10-16T13:16:49.631Z,201.2
2023-10-16T13:22:25.777Z,159.4
2023-10-16T13:27:57.655Z,177.1
2023-10-16T13:33:54.232Z,141.1
2023-10-16T13:39:25.976Z,271.2
2023-10-16T13:44:57.753Z,177.0
2023-10-16T13:50:29.478Z,122.7
2023-10-16T13:56:01.220Z,999.9
2023-10-16T14:01:32.984Z,999.9
2023-10-16T14:07:04.774Z,29.9
2023-10-16T14:12:36.449Z,20.2
2023-10-16T14:18:08.106Z,999.9
2023-10-16T14:23:44.062Z,41.5
2023-10-16T14:29:15.769Z,78.7
2023-10-16T14:34:47.488Z,98.7
2023-10-16T14:40:19.277Z,100.7
2023-10-16T14:45:51.160Z,33.2
2023-10-16T14:51:22.683Z,19.1
2023-10-16T14:56:54.597Z,23.9
2023-10-16T15:02:26.331Z,98.9
2023-10-16T15:07:58.176Z,999.9
2023-10-16T15:13:29.571Z,36.9
2023-10-16T15:19:02.235Z,999.9
2023-10-16T15:24:37.435Z,16.8
2023-10-16T15:30:09.113Z,999.9
2023-10-16T15:35:41.002Z,10.4
2023-10-16T15:41:12.657Z,999.9
2023-10-16T15:46:44.398Z,999.9
2023-10-16T15:52:16.201Z,999.9
2023-10-16T15:57:47.746Z,999.9
2023-10-16T16:03:19.437Z,999.9
2023-10-16T16:08:51.357Z,999.9
2023-10-16T16:14:23.090Z,999.9
2023-10-16T16:19:54.620Z,999.9
2023-10-16T16:25:30.892Z,999.9
2023-10-16T16:31:02.414Z,999.9
2023-10-16T16:36:34.292Z,999.9
2023-10-16T16:42:05.927Z,999.9
2023-10-16T16:47:37.965Z,999.9
2023-10-16T16:53:09.318Z,999.9
2023-10-16T16:58:41.309Z,999.9
2023-10-16T17:04:13.007Z,999.9
2023-10-16T17:09:44.480Z,999.9
2023-10-16T17:15:16.196Z,999.9
2023-10-16T17:20:48.184Z,999.9
2023-10-16T17:26:26.290Z,999.9
2023-10-16T17:31:57.761Z,999.9
2023-10-16T17:37:29.465Z,999.9
2023-10-16T17:43:01.328Z,999.9
2023-10-16T17:48:33.013Z,999.9
2023-10-16T17:54:04.636Z,999.9
2023-10-16T17:59:36.359Z,999.9
2023-10-16T18:05:08.087Z,999.9
2023-10-16T18:10:39.811Z,999.9
2023-10-16T18:16:11.554Z,999.9
2023-10-16T18:21:43.296Z,999.9
2023-10-16T18:27:21.400Z,999.9
2023-10-16T18:32:53.371Z,999.9
2023-10-16T18:38:25.357Z,999.9
2023-10-16T18:43:56.520Z,999.9
2023-10-16T18:49:28.194Z,999.9
2023-10-16T18:55:00.158Z,999.9
2023-10-16T19:00:31.700Z,999.9
2023-10-16T19:06:03.693Z,999.9
2023-10-16T19:11:35.167Z,999.9
2023-10-16T19:17:07.046Z,999.9
2023-10-16T19:22:38.799Z,999.9
2023-10-16T19:28:14.696Z,999.9
2023-10-16T19:33:46.528Z,999.9
2023-10-16T19:39:18.296Z,999.9
2023-10-16T19:44:50.063Z,999.9
2023-10-16T19:50:21.520Z,999.9
2023-10-16T19:55:53.505Z,999.9
2023-10-16T20:01:25.004Z,999.9
2023-10-16T20:06:56.715Z,999.9
2023-10-16T20:12:28.434Z,999.9
2023-10-16T20:18:00.158Z,999.9
2023-10-16T20:23:31.911Z,999.9
2023-10-16T20:29:08.250Z,999.9
2023-10-16T20:34:39.692Z,999.9
2023-10-16T20:40:11.400Z,999.9
2023-10-16T20:45:43.193Z,999.9
2023-10-16T20:51:14.911Z,999.9
2023-10-16T20:56:46.788Z,999.9
2023-10-16T21:02:18.443Z,999.9
2023-10-16T21:07:50.146Z,999.9
2023-10-16T21:13:21.735Z,999.9
2023-10-16T21:18:53.482Z,999.9
2023-10-16T21:24:25.257Z,999.9
2023-10-16T21:30:01.478Z,999.9
2023-10-16T21:35:33.075Z,999.9
2023-10-16T21:41:05.030Z,999.9
2023-10-16T21:46:36.541Z,999.9
2023-10-16T21:52:08.208Z,66.8
2023-10-16T21:57:40.777Z,25.0
2023-10-16T22:03:11.788Z,65.7
2023-10-16T22:08:43.629Z,79.8
2023-10-16T22:14:15.051Z,64.7
2023-10-16T22:19:47.276Z,60.9
2023-10-16T22:25:18.701Z,40.9
2023-10-16T22:30:54.794Z,62.6
2023-10-16T22:36:26.741Z,8.2
2023-10-16T22:41:58.615Z,25.5
2023-10-16T22:47:29.990Z,22.4
2023-10-16T22:53:01.482Z,999.9
2023-10-16T22:58:34.409Z,58.6
2023-10-16T23:04:05.260Z,19.5
2023-10-16T23:09:36.676Z,999.9
2023-10-16T23:15:08.581Z,999.9
2023-10-16T23:20:40.209Z,999.9
2023-10-16T23:26:12.022Z,999.9
2023-10-16T23:31:48.222Z,14.7
2023-10-16T23:37:19.730Z,30.4
2023-10-16T23:42:51.535Z,65.7
2023-10-16T23:48:23.315Z,56.4
2023-10-16T23:53:54.904Z,89.8
2023-10-16T23:59:26.565Z,59.8
